createdAt,value
2018-08-31T00:01:34.368Z,7.57
2018-08-31T00:07:29.381Z,8.24
2018-08-31T00:13:24.369Z,8.48
2018-08-31T00:19:19.392Z,7.58
2018-08-31T00:25:14.402Z,8.24
2018-08-31T00:31:09.403Z,7.9
2018-08-31T00:37:04.416Z,8.07
2018-08-31T00:42:59.395Z,7.63
2018-08-31T00:48:54.454Z,8.22
2018-08-31T00:54:49.429Z,8.8
2018-08-31T01:00:44.410Z,7.91
2018-08-31T01:06:39.460Z,8.86
2018-08-31T01:12:34.430Z,8.23
2018-08-31T01:18:29.465Z,8.78
2018-08-31T01:24:24.429Z,7.94
2018-08-31T01:30:19.451Z,8.05
2018-08-31T01:36:14.466Z,8.17
2018-08-31T01:42:09.468Z,7.72
2018-08-31T01:48:04.432Z,8.61
2018-08-31T01:53:59.483Z,8.33
2018-08-31T01:59:54.460Z,8.03
2018-08-31T02:05:49.491Z,9.01
2018-08-31T02:11:44.475Z,8.37
2018-08-31T02:17:39.496Z,8.47
2018-08-31T02:23:34.551Z,8.5
2018-08-31T02:29:29.487Z,8.17
2018-08-31T02:35:24.498Z,8.86
2018-08-31T02:41:19.495Z,7.38
2018-08-31T02:47:14.504Z,8.02
2018-08-31T02:53:09.513Z,8.38
2018-08-31T02:59:04.516Z,8.33
2018-08-31T03:04:59.510Z,8.9
2018-08-31T03:10:54.506Z,8.95
2018-08-31T03:16:49.504Z,9.02
2018-08-31T03:22:44.527Z,9.09
2018-08-31T03:28:39.519Z,8.91
2018-08-31T03:34:34.547Z,8.23
2018-08-31T03:40:29.547Z,9.32
2018-08-31T03:46:24.578Z,8.63
2018-08-31T03:52:19.540Z,9.17
2018-08-31T03:58:14.547Z,8.16
2018-08-31T04:04:09.553Z,8.82
2018-08-31T04:10:04.555Z,7.77
2018-08-31T04:15:59.552Z,9.64
2018-08-31T04:21:54.573Z,9.23
2018-08-31T04:27:49.559Z,10.21
2018-08-31T04:33:44.564Z,9.69
2018-08-31T04:39:39.587Z,10.03
2018-08-31T04:45:34.607Z,9.99
2018-08-31T04:51:29.578Z,10.5
2018-08-31T04:57:24.596Z,10.53
2018-08-31T05:03:19.609Z,10.04
2018-08-31T05:09:14.619Z,10.15
2018-08-31T05:15:09.587Z,9.65
2018-08-31T05:21:04.624Z,9.47
2018-08-31T05:26:59.622Z,9.69
2018-08-31T05:32:54.611Z,9.35
2018-08-31T05:38:49.619Z,8.89
2018-08-31T05:44:44.643Z,9.87
2018-08-31T05:50:39.624Z,9.47
2018-08-31T05:56:34.648Z,9.83
2018-08-31T06:02:29.646Z,8.89
2018-08-31T06:08:24.651Z,9.23
2018-08-31T06:14:19.670Z,10.55
2018-08-31T06:20:14.691Z,9.63
2018-08-31T06:26:09.665Z,9.17
2018-08-31T06:32:04.646Z,9.28
2018-08-31T06:37:59.717Z,8.87
2018-08-31T06:43:54.670Z,9.95
2018-08-31T06:49:49.676Z,10.69
2018-08-31T06:55:44.685Z,11.91
2018-08-31T07:01:39.689Z,11.67
2018-08-31T07:07:34.671Z,11.71
2018-08-31T07:13:29.699Z,10.26
2018-08-31T07:19:24.803Z,10.87
2018-08-31T07:25:19.730Z,9.69
2018-08-31T07:31:14.750Z,9.01
2018-08-31T07:37:09.740Z,9.61
2018-08-31T07:43:04.703Z,10.43
2018-08-31T07:48:59.737Z,9.67
2018-08-31T07:54:54.734Z,11.28
2018-08-31T08:00:49.745Z,9.99
2018-08-31T08:06:44.732Z,9.95
2018-08-31T08:12:39.740Z,9.7
2018-08-31T08:18:34.777Z,8.46
2018-08-31T08:24:29.770Z,9.8
2018-08-31T08:30:24.766Z,8.27
2018-08-31T08:36:19.778Z,8.47
2018-08-31T08:42:14.873Z,8.33
2018-08-31T08:48:09.826Z,8.01
2018-08-31T08:54:04.778Z,8.94
2018-08-31T08:59:59.807Z,7.56
2018-08-31T09:05:54.823Z,6.77
2018-08-31T09:11:49.827Z,7.17
2018-08-31T09:17:44.814Z,8.05
2018-08-31T09:23:39.822Z,6.99
2018-08-31T09:29:34.860Z,7.06
2018-08-31T09:35:29.830Z,6.64
2018-08-31T09:41:24.824Z,6.59
2018-08-31T09:47:19.823Z,6.94
2018-08-31T09:53:14.871Z,6.61
2018-08-31T09:59:09.821Z,7.46
2018-08-31T10:05:04.836Z,7.31
2018-08-31T10:10:59.842Z,7.19
2018-08-31T10:16:54.840Z,7.12
2018-08-31T10:22:49.891Z,6.56
2018-08-31T10:28:44.842Z,6.49
2018-08-31T10:34:39.895Z,6.68
2018-08-31T10:40:34.916Z,7.5
2018-08-31T10:46:29.966Z,6.62
2018-08-31T10:52:24.884Z,6.93
2018-08-31T10:58:19.930Z,6.52
2018-08-31T11:04:14.925Z,6.31
2018-08-31T11:10:09.885Z,6.93
2018-08-31T11:16:04.889Z,7.32
2018-08-31T11:21:59.905Z,6.53
2018-08-31T11:27:55.013Z,7.18
2018-08-31T11:33:49.923Z,6.41
2018-08-31T11:39:44.935Z,6.27
2018-08-31T11:45:39.918Z,6.06
2018-08-31T11:51:34.935Z,6.31
2018-08-31T11:57:29.963Z,6.99
2018-08-31T12:03:24.940Z,6.58
2018-08-31T12:09:19.943Z,7.02
2018-08-31T12:15:14.948Z,7.14
2018-08-31T12:21:10.003Z,6.83
2018-08-31T12:27:04.959Z,7.4
2018-08-31T12:32:59.965Z,7.24
2018-08-31T12:38:54.969Z,7.29
2018-08-31T12:44:49.959Z,2.66
2018-08-31T12:50:44.970Z,1.71
2018-08-31T12:56:39.974Z,1.79
2018-08-31T13:02:35.016Z,2.12
2018-08-31T13:08:29.977Z,3.5
2018-08-31T13:14:25.001Z,4.87
2018-08-31T13:20:19.984Z,4.54
2018-08-31T13:26:15.046Z,3.77
2018-08-31T13:32:09.994Z,4.33
2018-08-31T13:38:05.100Z,3.92
2018-08-31T13:44:00.116Z,3.81
2018-08-31T13:49:55.018Z,3.92
2018-08-31T13:55:50.032Z,3.93
2018-08-31T14:01:45.081Z,4.21
2018-08-31T14:07:40.060Z,3.83
2018-08-31T14:13:35.036Z,4.17
2018-08-31T14:19:30.057Z,3.76
2018-08-31T14:25:25.069Z,4.39
2018-08-31T14:31:20.068Z,4.19
2018-08-31T14:37:15.079Z,4
2018-08-31T14:43:10.057Z,5.22
2018-08-31T14:49:05.073Z,6.18
2018-08-31T14:55:00.060Z,6.76
2018-08-31T15:00:55.080Z,6.09
2018-08-31T15:06:50.090Z,6.91
2018-08-31T15:12:45.118Z,7.67
2018-08-31T15:18:40.090Z,6.91
2018-08-31T15:24:35.107Z,6.93
2018-08-31T15:30:30.111Z,7.61
2018-08-31T15:36:25.116Z,7.91
2018-08-31T15:42:20.131Z,7.31
2018-08-31T15:48:15.200Z,8.18
2018-08-31T15:54:10.149Z,8.57
2018-08-31T16:00:05.218Z,10.26
2018-08-31T16:06:00.132Z,9.26
2018-08-31T16:11:55.175Z,9.23
2018-08-31T16:17:50.186Z,8.88
2018-08-31T16:23:45.171Z,8.83
2018-08-31T16:29:40.160Z,8.53
2018-08-31T16:35:35.162Z,8.63
2018-08-31T16:41:30.182Z,8.32
2018-08-31T16:47:25.249Z,8.37
2018-08-31T16:53:20.176Z,9.26
2018-08-31T16:59:15.206Z,8.86
2018-08-31T17:05:10.219Z,9.28
2018-08-31T17:11:05.203Z,9.26
2018-08-31T17:17:00.294Z,9.65
2018-08-31T17:22:55.188Z,9.55
2018-08-31T17:28:50.253Z,8.93
2018-08-31T17:34:45.210Z,8.87
2018-08-31T17:40:40.220Z,8.46
2018-08-31T17:46:35.227Z,8.71
2018-08-31T17:52:30.243Z,10.42
2018-08-31T17:58:25.238Z,9.76
2018-08-31T18:04:20.236Z,10.04
2018-08-31T18:10:15.265Z,8.52
2018-08-31T18:16:10.385Z,8.48
2018-08-31T18:22:05.255Z,8.77
2018-08-31T18:28:00.259Z,8.76
2018-08-31T18:33:55.233Z,8.58
2018-08-31T18:39:50.306Z,9.59
2018-08-31T18:45:45.274Z,8.57
2018-08-31T18:51:40.271Z,9.16
2018-08-31T18:57:35.271Z,9.03
2018-08-31T19:03:30.287Z,9.2
2018-08-31T19:09:25.287Z,9.13
2018-08-31T19:15:20.285Z,8.47
2018-08-31T19:21:15.289Z,8.66
2018-08-31T19:27:10.292Z,8.55
2018-08-31T19:33:05.369Z,8.78
2018-08-31T19:39:00.316Z,8.81
2018-08-31T19:44:55.321Z,8.43
2018-08-31T19:50:50.342Z,9.01
2018-08-31T19:56:45.315Z,8.67
2018-08-31T20:02:40.310Z,8.2
2018-08-31T20:08:35.319Z,9.39
2018-08-31T20:14:30.350Z,8.61
2018-08-31T20:20:25.343Z,9
2018-08-31T20:26:20.329Z,8.75
2018-08-31T20:32:15.326Z,8.98
2018-08-31T20:38:10.376Z,9.8
2018-08-31T20:44:05.389Z,9.32
2018-08-31T20:50:00.339Z,9.79
2018-08-31T20:55:55.398Z,9.79
2018-08-31T21:01:50.395Z,9.5
2018-08-31T21:07:45.396Z,8.83
2018-08-31T21:13:40.384Z,9.24
2018-08-31T21:19:35.410Z,9.76
2018-08-31T21:25:30.462Z,9.69
2018-08-31T21:31:25.440Z,9.55
2018-08-31T21:37:20.434Z,9.07
2018-08-31T21:43:15.390Z,9.42
2018-08-31T21:49:10.446Z,9.16
2018-08-31T21:55:05.418Z,10
2018-08-31T22:01:00.446Z,9.32
2018-08-31T22:06:55.435Z,10.29
2018-08-31T22:12:50.436Z,10.47
2018-08-31T22:18:45.488Z,8.84
2018-08-31T22:24:40.421Z,9.68
2018-08-31T22:30:35.430Z,9.97
2018-08-31T22:36:30.482Z,9.43
2018-08-31T22:42:25.434Z,9.04
2018-08-31T22:48:20.450Z,9.55
2018-08-31T22:54:15.466Z,10.5
2018-08-31T23:00:10.593Z,9.24
2018-08-31T23:06:05.460Z,9.23
2018-08-31T23:12:00.475Z,9.92
2018-08-31T23:17:55.481Z,10.15
2018-08-31T23:23:50.493Z,9.36
2018-08-31T23:29:45.473Z,9.5
2018-08-31T23:35:40.480Z,9.64
2018-08-31T23:41:35.504Z,9.99
2018-08-31T23:47:30.492Z,9.98
2018-08-31T23:53:25.505Z,9.16
2018-08-31T23:59:20.542Z,9.43
